New Hope Academy, North Carolina
Current Conditions -  °F | °C
As of 1:55 AM on Monday 24 Nov 2014 (Local Time) from KHBI Reporting Station
Overcast Overcast  
Wind Chill: 63°   Ceiling: 3100
Heat Index: 63°   Visibility: 10mi
Dew Point: 60°   Wind: 12mph
Humidity: 91%   Direction: 200°SSW
Pressure: 29.76"   Gusts: 17mph
Location:  35.6015°N, 80.0858°W
Report Text: KHBI 240655Z AUTO 20010G15KT 10SM SCT017 SCT024 OVC031 17/16 A2976 RMK AO2 T01710157
Loading
Personal Weather Stations






























Interactive Weather Map New forecast layout! Learn more

10-Day Weather Forecast

Advertisements
Track Severe Weather on mobile